Time;durP1;ratioP1;P1;durP2;ratioP2;P2;SDS_P1;SDS_P2;PMS_P1;PMS_P2;Temp;Humidity;BMP_temperature;BMP_pressure;BME280_temperature;BME280_humidity;BME280_pressure;Samples;Min_cycle;Max_cycle;Signal;HPM_P1;HPM_P2
2021/10/09 00:01:48;;;;;;;32.17;18.50;;;14.10;91.40;;;;;;4886841;29;20049;-81
2021/10/09 00:04:16;;;;;;;29.80;17.25;;;14.10;91.30;;;;;;4875899;29;20411;-81
2021/10/09 00:06:44;;;;;;;30.17;17.58;;;14.00;91.30;;;;;;4881536;29;20045;-81
2021/10/09 00:09:15;;;;;;;31.42;17.88;;;14.00;91.40;;;;;;4880206;29;20049;-81
2021/10/09 00:11:44;;;;;;;28.25;17.40;;;13.90;91.40;;;;;;4896980;29;20091;-81
2021/10/09 00:14:14;;;;;;;28.33;17.35;;;13.90;91.40;;;;;;4878999;29;20053;-81
2021/10/09 00:16:43;;;;;;;34.72;18.52;;;13.80;91.50;;;;;;4897272;29;20395;-81
2021/10/09 00:19:12;;;;;;;34.88;18.83;;;13.80;91.60;;;;;;4902668;29;20055;-81
2021/10/09 00:21:44;;;;;;;36.58;19.42;;;13.70;91.70;;;;;;4915690;29;20062;-81
2021/10/09 00:24:13;;;;;;;40.05;21.10;;;13.60;91.70;;;;;;4915770;29;20055;-80
2021/10/09 00:26:41;;;;;;;41.75;20.50;;;13.50;91.80;;;;;;4915690;29;20055;-81
2021/10/09 00:29:10;;;;;;;38.53;19.77;;;13.40;91.90;;;;;;4898684;29;20060;-80
2021/10/09 00:31:37;;;;;;;38.08;19.63;;;13.30;92.10;;;;;;4915391;29;20060;-81
2021/10/09 00:34:05;;;;;;;41.72;20.98;;;13.30;92.20;;;;;;4899462;29;20490;-81
2021/10/09 00:36:33;;;;;;;41.15;20.27;;;13.30;92.30;;;;;;4905660;29;20056;-81
2021/10/09 00:39:01;;;;;;;43.28;20.27;;;13.20;92.40;;;;;;4922257;29;20048;-81
2021/10/09 00:41:28;;;;;;;42.35;21.52;;;13.10;92.50;;;;;;4884821;29;20048;-81
2021/10/09 00:44:11;;;;;;;50.17;21.88;;;13.10;92.60;;;;;;4915070;29;20055;-81
2021/10/09 00:46:43;;;;;;;47.40;21.63;;;13.00;92.70;;;;;;4898884;29;20044;-81
2021/10/09 00:49:16;;;;;;;46.22;22.00;;;13.00;92.80;;;;;;4899524;29;20055;-81
2021/10/09 00:51:46;;;;;;;49.15;22.92;;;12.90;92.90;;;;;;4915910;29;20052;-81
2021/10/09 00:54:16;;;;;;;54.15;23.52;;;12.90;93.00;;;;;;4915928;29;20040;-81
2021/10/09 00:56:45;;;;;;;54.75;24.33;;;12.80;93.10;;;;;;4869217;29;20072;-81
2021/10/09 00:59:14;;;;;;;53.63;24.55;;;12.80;93.10;;;;;;4897027;29;20048;-81
2021/10/09 01:01:41;;;;;;;59.28;24.77;;;12.80;93.20;;;;;;4864703;29;20052;-81
2021/10/09 01:04:10;;;;;;;64.88;26.02;;;12.70;93.20;;;;;;4879987;29;20511;-81
2021/10/09 01:06:38;;;;;;;70.38;25.13;;;12.60;93.20;;;;;;4879778;29;20053;-81
2021/10/09 01:09:05;;;;;;;72.40;26.52;;;12.50;93.40;;;;;;4880083;29;20123;-81
2021/10/09 01:11:33;;;;;;;67.45;26.30;;;12.40;93.50;;;;;;4879756;29;20507;-81
2021/10/09 01:14:04;;;;;;;66.18;24.00;;;12.30;93.60;;;;;;4880044;29;20067;-81
2021/10/09 01:16:33;;;;;;;89.93;29.40;;;12.30;93.80;;;;;;4880164;29;20052;-81
2021/10/09 01:19:06;;;;;;;94.28;29.65;;;12.30;94.00;;;;;;4880150;29;20045;-81
2021/10/09 01:21:43;;;;;;;73.90;27.73;;;12.30;94.10;;;;;;4914040;29;20060;-81
2021/10/09 01:24:11;;;;;;;93.50;30.20;;;12.20;94.20;;;;;;4882820;29;20144;-81
2021/10/09 01:26:39;;;;;;;90.88;29.65;;;12.20;94.30;;;;;;4901694;29;20138;-81
2021/10/09 01:29:11;;;;;;;93.85;30.58;;;12.20;94.40;;;;;;4886462;29;20052;-81
2021/10/09 01:31:42;;;;;;;83.20;29.20;;;12.20;94.50;;;;;;4885603;29;20047;-81
2021/10/09 01:34:12;;;;;;;90.70;29.40;;;12.20;94.60;;;;;;4902069;29;20060;-81
2021/10/09 01:36:40;;;;;;;84.38;27.55;;;12.20;94.50;;;;;;4902078;29;20052;-81
2021/10/09 01:39:10;;;;;;;85.38;29.08;;;12.20;94.50;;;;;;4886620;29;20052;-81
2021/10/09 01:41:47;;;;;;;92.53;31.33;;;12.20;94.50;;;;;;4886174;29;20414;-81
2021/10/09 01:44:16;;;;;;;94.65;32.60;;;12.30;94.60;;;;;;4902245;29;20525;-81
2021/10/09 01:46:48;;;;;;;101.57;33.55;;;12.30;94.60;;;;;;4901741;29;20056;-81
2021/10/09 01:49:15;;;;;;;96.82;33.85;;;12.40;94.60;;;;;;4901637;29;20048;-81
2021/10/09 01:51:45;;;;;;;100.25;34.17;;;12.50;94.50;;;;;;4901639;29;20056;-81
2021/10/09 01:54:12;;;;;;;101.47;32.97;;;12.60;94.50;;;;;;4902127;29;20047;-81
2021/10/09 01:56:40;;;;;;;95.05;31.42;;;12.70;94.50;;;;;;4905510;29;20061;-81
2021/10/09 01:59:09;;;;;;;83.45;30.80;;;12.80;94.40;;;;;;4883255;29;20079;-81
2021/10/09 02:01:42;;;;;;;87.50;31.25;;;12.80;94.40;;;;;;4882053;29;20064;-81
2021/10/09 02:04:10;;;;;;;82.20;30.75;;;12.80;94.30;;;;;;4867363;29;20068;-81
2021/10/09 02:06:45;;;;;;;83.22;31.23;;;12.80;94.30;;;;;;4868854;29;20052;-81
2021/10/09 02:09:16;;;;;;;82.85;30.15;;;12.90;94.20;;;;;;4883083;29;20423;-81
2021/10/09 02:11:49;;;;;;;82.68;29.35;;;12.80;94.20;;;;;;4882570;29;20052;-81
2021/10/09 02:27:38;;;;;;;91.07;30.77;;;12.70;94.50;;;;;;4882588;29;20059;-81
2021/10/09 02:30:07;;;;;;;86.55;30.70;;;12.70;94.50;;;;;;4867019;29;20045;-81
2021/10/09 02:32:36;;;;;;;96.15;31.45;;;12.70;94.60;;;;;;4882519;29;20052;-81
2021/10/09 02:35:05;;;;;;;92.88;31.77;;;12.70;94.60;;;;;;4867535;29;20057;-81
2021/10/09 02:37:33;;;;;;;92.70;30.48;;;12.70;94.60;;;;;;4887266;29;20045;-81
2021/10/09 02:40:00;;;;;;;92.75;29.88;;;12.70;94.50;;;;;;4887985;29;20052;-81
2021/10/09 02:42:29;;;;;;;84.57;28.35;;;12.70;94.50;;;;;;4900398;29;20067;-81
2021/10/09 02:44:56;;;;;;;101.38;32.03;;;12.70;94.50;;;;;;4900417;29;20048;-81
2021/10/09 02:47:24;;;;;;;88.63;30.65;;;12.60;94.60;;;;;;4917569;29;20056;-81
2021/10/09 02:49:51;;;;;;;97.57;30.98;;;12.70;94.70;;;;;;4885141;29;20062;-81
2021/10/09 02:52:19;;;;;;;102.28;32.03;;;12.70;94.70;;;;;;4917306;29;20044;-81
2021/10/09 02:54:47;;;;;;;104.97;31.17;;;12.80;94.70;;;;;;4900616;29;20055;-81
2021/10/09 02:57:14;;;;;;;106.13;31.13;;;12.80;94.60;;;;;;4882171;29;20053;-81
2021/10/09 02:59:42;;;;;;;87.47;30.40;;;12.70;94.60;;;;;;4881869;29;20048;-81
2021/10/09 03:02:10;;;;;;;91.53;31.20;;;12.70;94.70;;;;;;4881635;29;20052;-81
2021/10/09 03:04:37;;;;;;;103.28;32.35;;;12.70;94.60;;;;;;4895335;29;20063;-81
2021/10/09 03:07:05;;;;;;;97.05;30.80;;;12.70;94.70;;;;;;4917426;29;20056;-81
2021/10/09 03:09:34;;;;;;;106.68;32.95;;;12.70;94.70;;;;;;4900479;29;20044;-81
2021/10/09 03:12:02;;;;;;;101.72;32.55;;;12.80;94.70;;;;;;4899083;29;20048;-81
2021/10/09 03:14:31;;;;;;;101.97;32.20;;;12.80;94.70;;;;;;4900243;29;20540;-81
2021/10/09 03:16:59;;;;;;;107.07;32.80;;;12.80;94.70;;;;;;4917327;29;20055;-81
2021/10/09 03:19:27;;;;;;;108.03;32.63;;;12.80;94.70;;;;;;4899802;29;20059;-82
2021/10/09 03:21:54;;;;;;;104.45;34.53;;;12.80;94.70;;;;;;4896817;29;20072;-81
2021/10/09 03:24:22;;;;;;;92.18;32.00;;;12.80;94.60;;;;;;4896321;29;20057;-81
2021/10/09 03:26:50;;;;;;;102.95;32.78;;;12.80;94.60;;;;;;4880770;29;20052;-81
2021/10/09 03:29:20;;;;;;;97.72;32.30;;;12.90;94.60;;;;;;4865566;29;20407;-81
2021/10/09 03:31:48;;;;;;;96.18;31.63;;;12.90;94.60;;;;;;4896842;29;20053;-81
2021/10/09 03:34:16;;;;;;;95.50;32.22;;;12.90;94.50;;;;;;4896513;29;20057;-81
2021/10/09 03:36:46;;;;;;;91.07;31.63;;;13.00;94.50;;;;;;4881041;29;20052;-81
2021/10/09 03:39:17;;;;;;;86.82;31.63;;;13.00;94.60;;;;;;4896751;29;20072;-81
2021/10/09 03:41:51;;;;;;;90.32;31.45;;;13.00;94.50;;;;;;4898014;29;20049;-81
2021/10/09 03:44:19;;;;;;;95.15;31.65;;;13.00;94.50;;;;;;4896559;29;20388;-81
2021/10/09 03:47:00;;;;;;;95.43;32.22;;;13.10;94.50;;;;;;4896829;29;20112;-81
2021/10/09 03:55:08;;;;;;;101.78;32.53;;;13.20;94.40;;;;;;4896383;29;20049;-81
2021/10/09 03:57:36;;;;;;;84.35;31.23;;;13.20;94.40;;;;;;4881192;29;20052;-81
2021/10/09 04:00:07;;;;;;;99.60;31.92;;;13.20;94.40;;;;;;4880207;29;20044;-81
2021/10/09 04:02:41;;;;;;;92.22;32.75;;;13.20;94.30;;;;;;4880116;29;20265;-81
2021/10/09 04:05:13;;;;;;;81.57;29.98;;;13.20;94.30;;;;;;4881063;29;20488;-81
2021/10/09 04:07:42;;;;;;;92.93;31.33;;;13.20;94.30;;;;;;4896344;29;20056;-81
2021/10/09 04:10:16;;;;;;;89.32;31.10;;;13.30;94.30;;;;;;4896169;29;20403;-81
2021/10/09 04:12:44;;;;;;;95.00;31.90;;;13.20;94.30;;;;;;4880237;29;20083;-81
2021/10/09 04:15:13;;;;;;;94.80;31.45;;;13.20;94.30;;;;;;4880033;29;20048;-81
2021/10/09 04:17:42;;;;;;;89.63;32.42;;;13.30;94.30;;;;;;4896041;29;20087;-81
2021/10/09 04:20:13;;;;;;;94.93;32.17;;;13.30;94.20;;;;;;4880336;29;20052;-82
2021/10/09 04:22:40;;;;;;;97.03;32.65;;;13.30;94.20;;;;;;4895497;29;20123;-81
2021/10/09 04:25:08;;;;;;;91.35;32.53;;;13.30;94.20;;;;;;4864681;29;20415;-81
2021/10/09 04:27:37;;;;;;;88.28;31.05;;;13.30;94.20;;;;;;4896066;29;20521;-81
2021/10/09 04:30:08;;;;;;;90.30;30.77;;;13.30;94.20;;;;;;4896013;29;20056;-81
2021/10/09 04:32:36;;;;;;;86.93;32.15;;;13.30;94.20;;;;;;4880122;29;20053;-81
2021/10/09 04:35:07;;;;;;;91.07;31.88;;;13.30;94.20;;;;;;4897261;29;20055;-82
2021/10/09 04:37:35;;;;;;;88.13;31.77;;;13.30;94.10;;;;;;4905374;29;20475;-81
2021/10/09 04:40:05;;;;;;;91.95;32.58;;;13.40;94.10;;;;;;4900407;29;20089;-81
2021/10/09 04:42:38;;;;;;;88.95;30.80;;;13.40;94.20;;;;;;4864453;29;20494;-81
2021/10/09 04:45:06;;;;;;;91.82;32.63;;;13.40;94.10;;;;;;4880281;29;20055;-81
2021/10/09 04:47:39;;;;;;;87.22;31.40;;;13.40;94.10;;;;;;4880258;29;20541;-81
2021/10/09 04:50:07;;;;;;;85.60;31.80;;;13.40;94.10;;;;;;4864976;29;20055;-81
2021/10/09 04:52:35;;;;;;;83.35;32.00;;;13.40;94.10;;;;;;4879722;29;20406;-81
2021/10/09 04:55:06;;;;;;;102.40;36.28;;;13.40;94.10;;;;;;4864071;29;20056;-81
2021/10/09 04:57:34;;;;;;;94.45;33.92;;;13.40;94.10;;;;;;4864527;29;20064;-81
2021/10/09 05:00:03;;;;;;;104.85;36.95;;;13.50;94.00;;;;;;4879971;29;20411;-81
2021/10/09 05:02:31;;;;;;;103.68;37.13;;;13.50;94.00;;;;;;4879924;29;20386;-81
2021/10/09 05:04:59;;;;;;;106.32;38.53;;;13.50;94.00;;;;;;4879452;29;20079;-81
2021/10/09 05:07:27;;;;;;;118.53;39.85;;;13.60;94.00;;;;;;4864587;29;20063;-81
2021/10/09 05:09:55;;;;;;;121.80;38.83;;;13.60;94.00;;;;;;4879734;29;20412;-81
2021/10/09 05:12:23;;;;;;;109.28;39.33;;;13.60;94.00;;;;;;4879877;29;20045;-81
2021/10/09 05:14:51;;;;;;;118.03;37.85;;;13.60;93.90;;;;;;4879951;29;20514;-81
2021/10/09 05:17:20;;;;;;;115.72;38.80;;;13.60;93.90;;;;;;4880410;29;20495;-81
2021/10/09 05:19:48;;;;;;;119.18;38.95;;;13.60;93.90;;;;;;4879951;29;20049;-81
2021/10/09 05:22:15;;;;;;;118.55;40.08;;;13.60;93.90;;;;;;4863756;29;20435;-81
2021/10/09 05:24:43;;;;;;;121.50;40.33;;;13.70;93.90;;;;;;4879420;29;20390;-81
2021/10/09 05:27:11;;;;;;;124.25;39.97;;;13.60;93.90;;;;;;4879672;29;20053;-81
2021/10/09 05:29:39;;;;;;;115.90;39.42;;;13.70;93.90;;;;;;4880130;29;20475;-81
2021/10/09 05:32:07;;;;;;;128.48;40.55;;;13.70;93.90;;;;;;4879529;29;20047;-81
2021/10/09 05:34:35;;;;;;;114.78;38.55;;;13.70;93.90;;;;;;4863610;29;20067;-81
2021/10/09 05:37:03;;;;;;;128.65;40.80;;;13.70;93.90;;;;;;4879931;29;20041;-81
2021/10/09 05:39:33;;;;;;;120.03;40.85;;;13.70;93.90;;;;;;4879858;29;20053;-81
2021/10/09 05:42:01;;;;;;;135.50;42.10;;;13.70;93.90;;;;;;4898226;29;20409;-81
2021/10/09 05:44:29;;;;;;;139.10;42.50;;;13.70;93.90;;;;;;4915240;29;20055;-81
2021/10/09 05:46:58;;;;;;;136.40;43.13;;;13.70;93.90;;;;;;4897922;29;20059;-81
2021/10/09 05:49:25;;;;;;;139.57;41.63;;;13.70;93.90;;;;;;4915161;29;20055;-81
2021/10/09 05:52:07;;;;;;;134.05;41.33;;;13.80;93.90;;;;;;4898605;29;20055;-81
2021/10/09 05:54:47;;;;;;;143.52;42.58;;;13.70;93.90;;;;;;4915285;29;20063;-81
2021/10/09 05:57:37;;;;;;;124.63;39.25;;;13.80;93.90;;;;;;4880693;29;20060;-81
2021/10/09 06:50:19;;;;;;;140.68;40.67;;;13.90;93.70;;;;;;4911818;29;20052;-81
2021/10/09 07:01:05;;;;;;;137.82;40.80;;;14.00;93.60;;;;;;4882107;29;20403;-81
2021/10/09 07:03:33;;;;;;;140.68;41.50;;;14.00;93.60;;;;;;4887358;29;20129;-81
2021/10/09 07:06:04;;;;;;;137.43;40.58;;;14.10;93.60;;;;;;4900493;29;20055;-81
2021/10/09 07:08:53;;;;;;;142.63;40.70;;;14.10;93.60;;;;;;4907193;29;20158;-81
2021/10/09 07:11:41;;;;;;;131.40;40.47;;;14.10;93.60;;;;;;4917009;29;20052;-81
2021/10/09 07:14:08;;;;;;;141.93;41.75;;;14.10;93.50;;;;;;4900397;29;20402;-81
2021/10/09 07:16:39;;;;;;;138.23;40.15;;;14.20;93.50;;;;;;4899761;29;20509;-81
2021/10/09 07:19:07;;;;;;;136.38;41.35;;;14.20;93.50;;;;;;4900151;29;20071;-81
2021/10/09 07:21:38;;;;;;;123.72;39.28;;;14.20;93.40;;;;;;4900142;29;20048;-81
2021/10/09 07:24:26;;;;;;;129.15;38.83;;;14.30;93.40;;;;;;4898601;29;20075;-81
2021/10/09 07:26:57;;;;;;;120.63;37.03;;;14.20;93.40;;;;;;4899360;29;20048;-81
2021/10/09 07:29:25;;;;;;;118.63;37.80;;;14.30;93.30;;;;;;4917000;29;20059;-82
2021/10/09 07:31:54;;;;;;;119.15;38.60;;;14.30;93.30;;;;;;4899862;29;20056;-81
2021/10/09 07:34:22;;;;;;;114.72;36.38;;;14.30;93.20;;;;;;4915082;29;20056;-82
2021/10/09 07:36:49;;;;;;;111.18;37.55;;;14.30;93.20;;;;;;4916680;29;20044;-82
2021/10/09 07:39:17;;;;;;;110.97;37.20;;;14.30;93.10;;;;;;4916955;29;20051;-82
2021/10/09 07:41:45;;;;;;;102.03;35.60;;;14.40;93.10;;;;;;4883088;29;20044;-82
2021/10/09 07:44:12;;;;;;;102.20;36.78;;;14.40;93.10;;;;;;4897831;29;20059;-83
2021/10/09 07:46:39;;;;;;;106.10;36.63;;;14.50;93.10;;;;;;4897711;29;20045;-82
2021/10/09 07:49:07;;;;;;;93.80;34.65;;;14.50;93.00;;;;;;4898453;29;20530;-82
2021/10/09 07:51:35;;;;;;;96.47;34.80;;;14.60;92.90;;;;;;4897428;29;20044;-81
2021/10/09 07:54:04;;;;;;;96.65;34.80;;;14.60;92.90;;;;;;4897837;29;20599;-81
2021/10/09 07:56:32;;;;;;;95.70;34.50;;;14.70;92.90;;;;;;4897634;29;20061;-82
2021/10/09 07:58:59;;;;;;;91.15;33.90;;;14.70;92.80;;;;;;4897740;29;20052;-82
2021/10/09 08:01:28;;;;;;;90.78;32.95;;;14.80;92.70;;;;;;4887030;29;20052;-82
2021/10/09 08:03:55;;;;;;;92.03;34.53;;;14.80;92.60;;;;;;4915757;29;20410;-81
2021/10/09 08:06:23;;;;;;;86.07;32.50;;;14.80;92.60;;;;;;4916149;29;20060;-82
2021/10/09 08:08:51;;;;;;;84.57;33.17;;;14.90;92.50;;;;;;4915790;29;20052;-82
2021/10/09 08:11:19;;;;;;;76.72;30.85;;;14.90;92.40;;;;;;4916273;29;20059;-82
2021/10/09 08:13:46;;;;;;;76.13;30.92;;;15.00;92.30;;;;;;4910536;29;20049;-81
2021/10/09 08:16:14;;;;;;;77.65;31.25;;;15.10;92.20;;;;;;4886594;29;20048;-81
2021/10/09 08:18:42;;;;;;;77.88;30.63;;;15.10;91.90;;;;;;4878926;29;20507;-81
2021/10/09 08:21:10;;;;;;;77.85;30.40;;;15.10;91.80;;;;;;4890007;29;20041;-81
2021/10/09 08:23:54;;;;;;;73.10;29.10;;;15.10;91.70;;;;;;4903162;29;20048;-82
2021/10/09 08:40:15;;;;;;;68.05;26.38;;;15.40;91.10;;;;;;4866726;29;20061;-81
2021/10/09 08:42:44;;;;;;;60.35;26.67;;;15.50;91.00;;;;;;4896620;29;20539;-81
2021/10/09 08:45:14;;;;;;;60.42;26.52;;;15.60;90.90;;;;;;4896415;29;20415;-81
2021/10/09 08:47:43;;;;;;;56.97;25.40;;;15.70;90.60;;;;;;4896814;29;20055;-81
2021/10/09 08:50:13;;;;;;;54.28;24.70;;;15.70;90.50;;;;;;4896982;29;20407;-81
2021/10/09 08:53:02;;;;;;;65.38;25.63;;;15.70;90.30;;;;;;4879843;29;20052;-81
2021/10/09 08:55:30;;;;;;;56.80;25.63;;;15.70;90.00;;;;;;4875568;29;20049;-81
2021/10/09 08:58:03;;;;;;;53.13;24.58;;;15.80;89.90;;;;;;4876884;29;20060;-82
2021/10/09 09:01:02;;;;;;;53.15;23.50;;;15.80;89.80;;;;;;4914972;29;20055;-81
2021/10/09 09:09:19;;;;;;;56.25;24.23;;;15.90;89.40;;;;;;4915541;29;20052;-81
2021/10/09 09:38:55;;;;;;;44.17;23.45;;;16.60;87.00;;;;;;4891299;29;20063;-81
2021/10/09 09:41:24;;;;;;;45.85;23.75;;;16.70;86.60;;;;;;4882738;29;20048;-81
2021/10/09 09:43:58;;;;;;;45.60;23.50;;;16.80;86.40;;;;;;4898295;29;20513;-81
2021/10/09 09:46:28;;;;;;;46.40;24.08;;;16.80;85.90;;;;;;4914165;29;20204;-81
2021/10/09 09:48:57;;;;;;;45.38;24.00;;;16.80;85.90;;;;;;4917257;29;20052;-83
2021/10/09 09:51:24;;;;;;;39.40;22.17;;;16.80;86.00;;;;;;4907262;29;20053;-82
2021/10/09 09:53:52;;;;;;;41.72;22.38;;;16.80;85.60;;;;;;4889157;29;20115;-81
2021/10/09 09:56:19;;;;;;;39.10;22.15;;;16.80;85.40;;;;;;4883453;29;20052;-81
2021/10/09 09:58:59;;;;;;;42.78;22.65;;;16.80;85.40;;;;;;4895074;29;20056;-81
2021/10/09 10:01:33;;;;;;;43.85;21.88;;;16.70;85.40;;;;;;4894207;29;20414;-81
2021/10/09 10:04:02;;;;;;;43.83;22.50;;;16.70;85.40;;;;;;4875461;29;20037;-84
2021/10/09 10:06:30;;;;;;;40.53;22.00;;;16.70;85.20;;;;;;4876165;29;20100;-81
2021/10/09 10:08:58;;;;;;;37.58;20.85;;;16.70;85.20;;;;;;4882684;29;20052;-80
2021/10/09 10:11:26;;;;;;;39.92;21.08;;;16.80;85.20;;;;;;4881285;29;20411;-82
2021/10/09 10:13:56;;;;;;;41.35;22.77;;;16.80;84.80;;;;;;4898380;29;20071;-79
2021/10/09 10:16:25;;;;;;;42.95;23.05;;;16.80;84.70;;;;;;4899046;29;20499;-76
2021/10/09 10:18:54;;;;;;;41.05;22.60;;;16.80;84.70;;;;;;4884658;29;20052;-78
2021/10/09 10:21:37;;;;;;;48.67;23.80;;;16.80;84.90;;;;;;4904267;29;20456;-79
2021/10/09 10:24:09;;;;;;;38.72;21.25;;;16.80;84.90;;;;;;4887382;29;20052;-82
2021/10/09 10:26:37;;;;;;;41.60;21.67;;;16.80;84.80;;;;;;4884062;29;20048;-81
2021/10/09 10:29:04;;;;;;;41.65;22.48;;;16.80;84.70;;;;;;4898139;29;20040;-80
2021/10/09 10:31:36;;;;;;;40.15;22.83;;;16.80;84.50;;;;;;4893144;29;20057;-80
2021/10/09 10:34:19;;;;;;;38.92;22.30;;;16.80;84.50;;;;;;4889473;29;20436;-79
2021/10/09 10:36:47;;;;;;;39.08;20.95;;;16.70;84.60;;;;;;4887775;29;20076;-80
2021/10/09 10:39:20;;;;;;;38.28;22.27;;;16.70;84.80;;;;;;4887149;29;20507;-79
2021/10/09 10:42:07;;;;;;;41.47;22.40;;;16.70;84.70;;;;;;4867289;29;20048;-79
2021/10/09 10:44:48;;;;;;;41.70;22.02;;;16.70;84.70;;;;;;4878389;29;20048;-79
2021/10/09 10:47:44;;;;;;;40.80;21.95;;;16.70;84.80;;;;;;4880180;29;20538;-79
2021/10/09 10:56:06;;;;;;;59.72;22.60;;;16.90;84.70;;;;;;4897608;29;20052;-79
2021/10/09 10:58:39;;;;;;;83.63;23.67;;;16.90;84.40;;;;;;4893854;29;20135;-80
2021/10/09 11:01:20;;;;;;;;;;;17.00;84.30;;;;;;4888878;29;20072;-84
2021/10/09 11:03:54;;;;;;;33.75;19.17;;;17.10;84.10;;;;;;4902402;29;19934;-77
2021/10/09 11:06:23;;;;;;;34.38;19.05;;;17.20;83.90;;;;;;4889320;29;20048;-89
2021/10/09 11:08:53;;;;;;;30.73;18.48;;;17.30;83.60;;;;;;4879712;29;20052;-79
2021/10/09 11:11:42;;;;;;;31.90;18.55;;;17.30;83.20;;;;;;4894096;29;20055;-79
2021/10/09 11:14:23;;;;;;;27.40;16.75;;;17.40;82.90;;;;;;4908152;29;20041;-78
2021/10/09 11:17:02;;;;;;;29.33;17.17;;;17.50;82.70;;;;;;4877703;29;20049;-78
2021/10/09 11:19:47;;;;;;;36.13;18.00;;;17.60;82.40;;;;;;4880498;29;20041;-79
2021/10/09 11:22:18;;;;;;;33.22;17.85;;;17.60;82.10;;;;;;4867632;29;20053;-79
2021/10/09 11:24:51;;;;;;;30.13;17.77;;;17.80;82.10;;;;;;4886299;29;20063;-78
2021/10/09 11:27:20;;;;;;;25.38;15.02;;;17.80;81.80;;;;;;4895914;29;20479;-79
2021/10/09 11:30:10;;;;;;;28.60;15.88;;;17.80;81.20;;;;;;4874595;29;20657;-79
2021/10/09 11:32:40;;;;;;;29.02;15.48;;;17.80;80.90;;;;;;4882796;29;20061;-90
2021/10/09 11:35:10;;;;;;;26.90;15.52;;;17.70;80.90;;;;;;4861613;29;20037;-80
2021/10/09 11:37:50;;;;;;;26.02;16.17;;;17.80;80.80;;;;;;4897485;29;20047;-81
2021/10/09 11:40:28;;;;;;;28.35;15.85;;;17.80;80.80;;;;;;4895690;29;20060;-80
2021/10/09 11:43:01;;;;;;;29.27;16.02;;;17.80;80.70;;;;;;4914565;29;20068;-80
2021/10/09 11:46:30;;;;;;;25.85;15.05;;;17.80;80.70;;;;;;4914248;29;20048;-80
2021/10/09 11:54:36;;;;;;;27.73;14.90;;;18.10;80.10;;;;;;4914792;29;20056;-81
2021/10/09 11:57:04;;;;;;;26.33;14.10;;;18.20;79.50;;;;;;4898110;29;20052;-82
2021/10/09 11:59:40;;;;;;;21.17;13.77;;;18.10;79.00;;;;;;4897393;29;20056;-82
2021/10/09 12:02:08;;;;;;;24.25;13.40;;;18.10;79.00;;;;;;4914152;29;20052;-81
2021/10/09 12:04:36;;;;;;;23.95;13.70;;;18.10;79.00;;;;;;4916045;29;20056;-82
2021/10/09 12:09:45;;;;;;;22.13;13.02;;;18.10;78.80;;;;;;4914639;29;20063;-81
2021/10/09 12:12:26;;;;;;;22.70;12.20;;;18.10;78.70;;;;;;4916238;29;20058;-82
2021/10/09 12:14:54;;;;;;;21.08;12.77;;;18.10;78.20;;;;;;4916208;29;20068;-83
2021/10/09 12:17:32;;;;;;;23.17;12.50;;;18.10;78.20;;;;;;4899175;29;20056;-82
2021/10/09 12:20:02;;;;;;;18.55;11.50;;;18.10;78.30;;;;;;4899704;29;20213;-83
2021/10/09 12:22:41;;;;;;;22.45;12.57;;;18.10;77.90;;;;;;4898914;29;20092;-83
2021/10/09 12:25:25;;;;;;;16.83;11.40;;;18.10;77.40;;;;;;4915550;29;20498;-82
2021/10/09 12:28:01;;;;;;;23.75;11.93;;;18.10;77.30;;;;;;4898589;29;20056;-83
2021/10/09 12:30:36;;;;;;;17.35;11.52;;;18.10;77.30;;;;;;4916788;29;20052;-81
2021/10/09 12:33:03;;;;;;;22.70;12.55;;;18.10;77.30;;;;;;4917308;29;20395;-81
2021/10/09 12:35:34;;;;;;;20.65;12.02;;;18.10;77.10;;;;;;4920466;29;20055;-81
2021/10/09 12:38:07;;;;;;;17.60;11.20;;;18.20;77.00;;;;;;4916689;29;20051;-82
2021/10/09 12:40:36;;;;;;;16.35;11.02;;;18.20;76.80;;;;;;4915982;29;20059;-81
2021/10/09 12:43:07;;;;;;;17.95;10.45;;;18.20;76.80;;;;;;4915640;29;20055;-81
2021/10/09 12:45:34;;;;;;;15.57;10.30;;;18.30;76.80;;;;;;4898948;29;20388;-82
2021/10/09 12:48:03;;;;;;;17.58;11.32;;;18.30;76.60;;;;;;4916788;29;20403;-82
2021/10/09 12:50:34;;;;;;;17.92;11.80;;;18.40;76.40;;;;;;4901583;29;20048;-82
2021/10/09 12:53:02;;;;;;;21.40;11.70;;;18.40;76.40;;;;;;4915079;29;20048;-82
2021/10/09 12:55:33;;;;;;;21.33;12.48;;;18.40;76.50;;;;;;4915559;29;20059;-82
2021/10/09 12:58:08;;;;;;;19.77;12.82;;;18.40;76.20;;;;;;4898288;29;20052;-82
2021/10/09 13:00:38;;;;;;;18.45;12.20;;;18.50;76.10;;;;;;4898593;29;20517;-82
2021/10/09 13:03:06;;;;;;;20.25;13.00;;;18.40;76.10;;;;;;4883280;29;20047;-82
2021/10/09 13:05:34;;;;;;;21.77;12.73;;;18.40;76.30;;;;;;4915241;29;20054;-82
2021/10/09 13:08:03;;;;;;;21.27;12.05;;;18.30;76.50;;;;;;4915503;29;20051;-82
2021/10/09 13:10:39;;;;;;;17.88;11.55;;;18.30;76.50;;;;;;4915666;29;20048;-82
2021/10/09 13:13:07;;;;;;;21.13;12.52;;;18.30;76.60;;;;;;4915269;29;20048;-82
2021/10/09 13:15:34;;;;;;;17.58;11.48;;;18.30;76.60;;;;;;4883224;29;20048;-82
2021/10/09 13:18:02;;;;;;;16.98;11.95;;;18.20;76.30;;;;;;4915541;29;20052;-82
2021/10/09 13:20:33;;;;;;;19.13;11.63;;;18.20;76.50;;;;;;4916195;29;20052;-82
2021/10/09 13:23:01;;;;;;;24.23;12.77;;;18.20;76.60;;;;;;4902027;29;20067;-82
2021/10/09 13:25:36;;;;;;;23.58;13.95;;;18.20;76.70;;;;;;4918349;29;20067;-82
2021/10/09 13:28:04;;;;;;;21.67;13.85;;;18.10;76.70;;;;;;4919109;29;20071;-82
2021/10/09 13:30:34;;;;;;;21.08;14.70;;;18.10;76.90;;;;;;4919432;29;20048;-82
2021/10/09 13:33:02;;;;;;;23.98;14.43;;;18.00;76.80;;;;;;4918489;29;20060;-82
2021/10/09 13:35:30;;;;;;;23.83;14.23;;;17.90;76.90;;;;;;4901886;29;20048;-83
2021/10/09 13:38:00;;;;;;;23.48;12.68;;;17.80;77.10;;;;;;4902155;29;20048;-83
2021/10/09 13:40:29;;;;;;;21.95;13.43;;;17.80;77.30;;;;;;4902165;29;20067;-82
2021/10/09 13:42:56;;;;;;;21.58;11.57;;;17.80;77.50;;;;;;4901736;29;20052;-83
2021/10/09 13:45:23;;;;;;;16.55;10.93;;;17.90;77.40;;;;;;4918969;29;20063;-83
2021/10/09 13:47:51;;;;;;;19.25;11.23;;;18.00;77.30;;;;;;4918706;29;20059;-82
2021/10/09 13:50:19;;;;;;;18.15;9.88;;;18.10;77.00;;;;;;4918713;29;20048;-82
2021/10/09 13:52:47;;;;;;;15.40;10.05;;;18.10;76.70;;;;;;4918802;29;20056;-82
2021/10/09 13:55:14;;;;;;;22.35;13.20;;;18.20;76.60;;;;;;4918968;29;20040;-82
2021/10/09 13:57:42;;;;;;;20.42;13.75;;;18.20;76.40;;;;;;4918189;29;20056;-82
2021/10/09 14:00:10;;;;;;;23.35;12.60;;;18.20;76.40;;;;;;4918725;29;20044;-82
2021/10/09 14:02:40;;;;;;;20.63;12.63;;;18.10;76.60;;;;;;4917425;29;20490;-82
2021/10/09 14:05:08;;;;;;;25.60;11.93;;;18.00;76.80;;;;;;4918212;29;20067;-82
2021/10/09 14:07:36;;;;;;;18.60;11.60;;;17.90;77.10;;;;;;4885702;29;20052;-82
2021/10/09 14:10:05;;;;;;;19.90;11.48;;;17.90;77.10;;;;;;4918213;29;20086;-82
2021/10/09 14:12:32;;;;;;;21.30;12.82;;;17.90;77.10;;;;;;4917719;29;20067;-82
2021/10/09 14:15:01;;;;;;;20.92;12.07;;;17.90;77.20;;;;;;4919203;29;20475;-84
2021/10/09 14:17:31;;;;;;;24.20;13.07;;;18.00;77.40;;;;;;4918354;29;20051;-82
2021/10/09 14:20:00;;;;;;;23.00;13.45;;;18.00;77.60;;;;;;4918180;29;20059;-81
2021/10/09 14:22:29;;;;;;;19.23;12.40;;;17.90;77.70;;;;;;4917579;29;20059;-82
2021/10/09 14:24:58;;;;;;;20.40;12.57;;;17.90;77.80;;;;;;4917961;29;20517;-82
2021/10/09 14:27:28;;;;;;;21.60;13.48;;;17.90;77.80;;;;;;4918194;29;20435;-82
2021/10/09 14:29:57;;;;;;;18.00;11.77;;;17.90;78.00;;;;;;4901328;29;20048;-82
2021/10/09 14:32:25;;;;;;;18.88;12.40;;;17.80;78.20;;;;;;4919494;29;20095;-82
2021/10/09 14:34:53;;;;;;;13.82;9.30;;;17.90;78.30;;;;;;4924499;29;20048;-82
2021/10/09 14:37:21;;;;;;;15.13;9.35;;;17.90;78.20;;;;;;4920866;29;20064;-81
2021/10/09 14:39:49;;;;;;;15.98;9.68;;;17.80;77.90;;;;;;4901529;29;20506;-82
2021/10/09 14:42:17;;;;;;;13.00;8.98;;;17.80;77.70;;;;;;4901113;29;20059;-81
2021/10/09 14:44:45;;;;;;;19.92;10.85;;;17.80;77.90;;;;;;4900949;29;20063;-82
2021/10/09 14:49:56;;;;;;;13.07;8.18;;;17.80;78.10;;;;;;4917880;29;20052;-82
2021/10/09 15:16:51;;;;;;;19.63;12.32;;;17.40;79.40;;;;;;4917143;29;20048;-81
2021/10/09 15:19:19;;;;;;;;;;;17.30;79.60;;;;;;4917727;29;20494;-80
2021/10/09 15:21:46;;;;;;;21.13;12.38;;;17.30;79.90;;;;;;4917110;29;20289;-81
2021/10/09 15:24:14;;;;;;;19.85;12.10;;;17.30;80.10;;;;;;4916213;29;20408;-79
2021/10/09 15:26:41;;;;;;;24.27;13.07;;;17.20;80.30;;;;;;4916595;29;20052;-81
2021/10/09 15:29:09;;;;;;;25.35;12.40;;;17.20;80.30;;;;;;4915543;29;20439;-81